createdAt,value
2022-12-11T00:00:16.170Z,23.8
2022-12-11T00:05:16.107Z,23.8
2022-12-11T00:10:19.105Z,23.8
2022-12-11T00:15:16.155Z,23.9
2022-12-11T00:20:19.087Z,23.6
2022-12-11T00:25:19.092Z,23.6
2022-12-11T00:30:19.074Z,23.6
2022-12-11T00:35:19.068Z,23.6
2022-12-11T00:40:19.121Z,23.7
2022-12-11T00:45:19.128Z,23.7
2022-12-11T00:50:19.098Z,23.7
2022-12-11T00:55:19.103Z,23.8
2022-12-11T01:00:19.085Z,23.8
2022-12-11T01:05:16.149Z,23.4
2022-12-11T01:10:16.223Z,23.3
2022-12-11T01:15:19.100Z,23.4
2022-12-11T01:20:19.059Z,23.3
2022-12-11T01:25:19.185Z,23.8
2022-12-11T01:30:33.847Z,23.8
2022-12-11T01:35:16.253Z,23.9
2022-12-11T01:40:19.116Z,24.0
2022-12-11T01:45:19.174Z,23.6
2022-12-11T01:50:19.170Z,23.6
2022-12-11T01:55:19.154Z,23.7
2022-12-11T02:00:19.156Z,23.7
2022-12-11T02:05:16.184Z,23.7
2022-12-11T02:10:19.190Z,23.7
2022-12-11T02:15:16.184Z,23.7
2022-12-11T02:20:50.486Z,23.7
2022-12-11T02:25:19.187Z,23.4
2022-12-11T02:30:19.151Z,23.4
2022-12-11T02:35:16.286Z,23.4
2022-12-11T02:40:19.193Z,23.4
2022-12-11T02:45:19.237Z,23.5
2022-12-11T02:50:19.217Z,23.5
2022-12-11T02:55:19.162Z,23.5
2022-12-11T03:00:16.161Z,23.6
2022-12-11T03:05:19.250Z,23.6
2022-12-11T03:10:19.155Z,23.6
2022-12-11T03:15:19.138Z,23.6
2022-12-11T03:20:19.118Z,23.7
2022-12-11T03:25:19.229Z,23.7
2022-12-11T03:30:16.294Z,23.7
2022-12-11T03:35:19.243Z,23.7
2022-12-11T03:40:19.217Z,23.8
2022-12-11T03:45:19.203Z,23.5
2022-12-11T03:50:19.188Z,23.5
2022-12-11T03:55:19.162Z,23.4
2022-12-11T04:00:19.167Z,23.4
2022-12-11T04:05:19.185Z,23.0
2022-12-11T04:10:19.164Z,22.9
2022-12-11T04:15:19.151Z,22.5
2022-12-11T04:20:19.207Z,22.5
2022-12-11T04:25:19.193Z,22.4
2022-12-11T04:30:16.218Z,21.9
2022-12-11T04:35:19.256Z,21.8
2022-12-11T04:40:19.178Z,21.3
2022-12-11T04:45:16.200Z,21.2
2022-12-11T04:50:16.195Z,21.0
2022-12-11T04:55:19.251Z,21.0
2022-12-11T05:00:18.467Z,20.6
2022-12-11T05:05:15.441Z,20.5
2022-12-11T05:10:18.495Z,20.0
2022-12-11T05:15:18.539Z,20.3
2022-12-11T05:20:18.467Z,20.2
2022-12-11T05:25:18.438Z,20.0
2022-12-11T05:30:18.446Z,19.9
2022-12-11T05:35:15.518Z,19.8
2022-12-11T05:40:18.464Z,20.0
2022-12-11T05:45:15.380Z,19.4
2022-12-11T05:50:15.637Z,19.7
2022-12-11T05:55:15.491Z,19.6
2022-12-11T06:00:18.513Z,19.5
2022-12-11T06:05:18.550Z,19.3
2022-12-11T06:10:18.467Z,19.2
2022-12-11T06:15:18.507Z,19.2
2022-12-11T06:20:18.499Z,19.2
2022-12-11T06:25:15.426Z,19.4
2022-12-11T06:30:15.320Z,19.4
2022-12-11T06:35:18.539Z,19.2
2022-12-11T06:40:18.513Z,19.6
2022-12-11T06:45:18.463Z,19.5
2022-12-11T06:50:18.502Z,19.5
2022-12-11T06:55:18.504Z,19.5
2022-12-11T07:00:18.518Z,19.4
2022-12-11T07:05:18.470Z,19.3
2022-12-11T07:10:18.582Z,19.2
2022-12-11T07:15:18.565Z,19.1
2022-12-11T07:20:18.484Z,19.0
2022-12-11T07:25:18.567Z,18.9
2022-12-11T07:30:18.624Z,18.8
2022-12-11T07:35:18.597Z,18.7
2022-12-11T07:40:18.487Z,18.9
2022-12-11T07:45:18.573Z,18.5
2022-12-11T07:50:15.605Z,18.4
2022-12-11T07:55:18.626Z,18.3
2022-12-11T08:00:18.508Z,18.5
2022-12-11T08:05:30.541Z,18.5
2022-12-11T08:10:15.620Z,18.4
2022-12-11T08:15:15.602Z,18.4
2022-12-11T08:20:15.623Z,18.3
2022-12-11T08:25:15.492Z,18.3
2022-12-11T08:30:18.608Z,18.2
2022-12-11T08:35:18.601Z,18.0
2022-12-11T08:40:18.600Z,18.3
2022-12-11T08:45:15.358Z,18.3
2022-12-11T08:50:18.597Z,18.2
2022-12-11T08:55:18.636Z,18.2
2022-12-11T09:00:18.591Z,18.2
2022-12-11T09:05:18.603Z,18.2
2022-12-11T09:10:18.616Z,18.1
2022-12-11T09:15:18.622Z,18.0
2022-12-11T09:20:15.659Z,18.0
2022-12-11T09:25:15.640Z,18.0
2022-12-11T09:30:18.588Z,17.9
2022-12-11T09:35:18.627Z,17.8
2022-12-11T09:40:18.554Z,17.8
2022-12-11T09:45:18.614Z,17.7
2022-12-11T09:50:18.650Z,17.7
2022-12-11T09:55:15.697Z,17.7
2022-12-11T10:00:15.601Z,17.7
2022-12-11T10:05:15.707Z,17.7
2022-12-11T10:10:15.640Z,17.6
2022-12-11T10:15:15.913Z,17.6
2022-12-11T10:20:15.693Z,17.6
2022-12-11T10:25:15.423Z,17.5
2022-12-11T10:30:15.664Z,17.4
2022-12-11T10:35:18.692Z,17.3
2022-12-11T10:40:18.591Z,17.2
2022-12-11T10:45:18.620Z,17.1
2022-12-11T10:50:18.653Z,17.0
2022-12-11T10:55:18.633Z,17.0
2022-12-11T11:00:18.673Z,16.9
2022-12-11T11:05:18.614Z,16.9
2022-12-11T11:10:18.609Z,17.2
2022-12-11T11:15:18.622Z,17.2
2022-12-11T11:20:18.641Z,17.2
2022-12-11T11:25:18.660Z,17.2
2022-12-11T11:30:18.662Z,17.2
2022-12-11T11:35:15.536Z,16.9
2022-12-11T11:40:28.090Z,16.9
2022-12-11T11:45:18.661Z,17.1
2022-12-11T11:50:15.703Z,17.1
2022-12-11T11:55:22.456Z,17.0
2022-12-11T12:00:18.711Z,17.0
2022-12-11T12:05:18.644Z,17.3
2022-12-11T12:10:15.679Z,17.3
2022-12-11T12:15:15.755Z,17.4
2022-12-11T12:20:18.716Z,17.7
2022-12-11T12:25:15.614Z,17.8
2022-12-11T12:30:22.438Z,17.8
2022-12-11T12:35:15.731Z,17.8
2022-12-11T12:40:18.656Z,17.8
2022-12-11T12:45:18.723Z,17.7
2022-12-11T12:50:18.666Z,17.7
2022-12-11T12:55:15.498Z,17.6
2022-12-11T13:00:15.741Z,18.0
2022-12-11T13:05:15.724Z,17.9
2022-12-11T13:10:15.715Z,17.9
2022-12-11T13:15:15.695Z,18.2
2022-12-11T13:20:18.717Z,18.3
2022-12-11T13:25:18.716Z,18.3
2022-12-11T13:30:18.769Z,18.4
2022-12-11T13:35:15.709Z,18.4
2022-12-11T13:40:15.722Z,18.4
2022-12-11T13:45:15.627Z,18.5
2022-12-11T13:50:18.746Z,18.4
2022-12-11T13:55:18.735Z,18.3
2022-12-11T14:00:18.734Z,18.4
2022-12-11T14:05:18.742Z,18.3
2022-12-11T14:10:18.670Z,18.7
2022-12-11T14:15:18.704Z,18.7
2022-12-11T14:20:18.663Z,18.8
2022-12-11T14:25:18.688Z,18.8
2022-12-11T14:30:15.755Z,18.9
2022-12-11T14:35:15.749Z,19.0
2022-12-11T14:40:15.759Z,19.1
2022-12-11T14:45:15.765Z,19.1
2022-12-11T14:50:18.859Z,19.3
2022-12-11T14:55:18.785Z,19.4
2022-12-11T15:00:18.776Z,19.5
2022-12-11T15:05:18.753Z,19.7
2022-12-11T15:10:18.698Z,19.8
2022-12-11T15:15:18.743Z,19.8
2022-12-11T15:20:18.703Z,19.9
2022-12-11T15:25:15.797Z,20.0
2022-12-11T15:30:15.784Z,20.0
2022-12-11T15:35:15.585Z,20.1
2022-12-11T15:40:18.725Z,20.2
2022-12-11T15:45:15.675Z,20.2
2022-12-11T15:50:18.871Z,20.3
2022-12-11T15:55:18.767Z,19.9
2022-12-11T16:00:18.716Z,19.9
2022-12-11T16:05:18.714Z,20.0
2022-12-11T16:10:18.732Z,20.1
2022-12-11T16:15:23.504Z,20.2
2022-12-11T16:20:15.775Z,20.4
2022-12-11T16:25:18.823Z,20.5
2022-12-11T16:30:15.843Z,20.6
2022-12-11T16:35:18.774Z,20.8
2022-12-11T16:40:15.775Z,20.9
2022-12-11T16:45:18.852Z,21.1
2022-12-11T16:50:18.749Z,21.2
2022-12-11T16:55:15.839Z,21.3
2022-12-11T17:00:18.813Z,21.0
2022-12-11T17:05:18.783Z,21.4
2022-12-11T17:10:15.901Z,21.2
2022-12-11T17:15:18.856Z,21.2
2022-12-11T17:20:15.880Z,21.2
2022-12-11T17:25:15.797Z,20.9
2022-12-11T17:30:18.807Z,21.0
2022-12-11T17:35:19.442Z,21.0
2022-12-11T17:40:15.851Z,21.0
2022-12-11T17:45:18.825Z,21.0
2022-12-11T17:50:15.631Z,21.0
2022-12-11T17:55:18.835Z,21.3
2022-12-11T18:00:15.920Z,21.3
2022-12-11T18:05:18.874Z,21.2
2022-12-11T18:10:18.774Z,21.2
2022-12-11T18:15:18.821Z,21.3
2022-12-11T18:20:15.862Z,21.8
2022-12-11T18:25:16.317Z,21.4
2022-12-11T18:30:15.829Z,21.3
2022-12-11T18:35:18.887Z,21.3
2022-12-11T18:40:18.817Z,21.3
2022-12-11T18:45:18.788Z,21.3
2022-12-11T18:50:18.827Z,21.3
2022-12-11T18:55:18.798Z,21.2
2022-12-11T19:00:18.925Z,20.9
2022-12-11T19:05:18.849Z,20.8
2022-12-11T19:10:15.866Z,20.8
2022-12-11T19:15:23.483Z,21.0
2022-12-11T19:20:47.596Z,21.0
2022-12-11T19:25:15.882Z,21.4
2022-12-11T19:30:18.892Z,21.4
2022-12-11T19:35:18.922Z,21.4
2022-12-11T19:40:18.827Z,21.4
2022-12-11T19:45:18.842Z,21.3
2022-12-11T19:50:18.890Z,21.6
2022-12-11T19:55:18.884Z,21.6
2022-12-11T20:00:15.922Z,21.7
2022-12-11T20:05:18.929Z,22.0
2022-12-11T20:10:18.949Z,22.1
2022-12-11T20:15:18.846Z,22.2
2022-12-11T20:20:18.875Z,22.5
2022-12-11T20:25:15.739Z,22.5
2022-12-11T20:30:18.952Z,22.6
2022-12-11T20:35:18.924Z,22.8
2022-12-11T20:40:18.888Z,23.2
2022-12-11T20:45:18.838Z,23.2
2022-12-11T20:50:15.890Z,23.1
2022-12-11T20:55:18.899Z,23.3
2022-12-11T21:00:15.876Z,23.3
2022-12-11T21:05:15.818Z,23.5
2022-12-11T21:10:18.914Z,23.5
2022-12-11T21:15:15.928Z,23.7
2022-12-11T21:20:18.940Z,24.2
2022-12-11T21:25:18.888Z,24.3
2022-12-11T21:30:18.895Z,24.2
2022-12-11T21:35:15.959Z,24.4
2022-12-11T21:40:15.720Z,24.5
2022-12-11T21:46:01.149Z,24.7
2022-12-11T21:50:15.947Z,24.6
2022-12-11T21:55:15.978Z,24.5
2022-12-11T22:00:15.976Z,24.4
2022-12-11T22:05:18.943Z,24.6
2022-12-11T22:10:18.916Z,24.5
2022-12-11T22:15:15.987Z,24.4
2022-12-11T22:20:15.922Z,24.3
2022-12-11T22:25:15.803Z,24.5
2022-12-11T22:30:19.221Z,24.5
2022-12-11T22:35:16.047Z,24.5
2022-12-11T22:40:18.976Z,24.4
2022-12-11T22:45:15.919Z,24.3
2022-12-11T22:50:18.992Z,24.4
2022-12-11T22:55:15.952Z,24.4
2022-12-11T23:00:15.976Z,24.3
2022-12-11T23:05:15.805Z,24.3
2022-12-11T23:10:18.979Z,24.2
2022-12-11T23:15:18.977Z,24.2
2022-12-11T23:20:18.970Z,24.5
2022-12-11T23:25:15.980Z,24.4
2022-12-11T23:30:16.012Z,24.4
2022-12-11T23:35:16.085Z,24.4
2022-12-11T23:40:15.985Z,24.4
2022-12-11T23:45:15.949Z,24.4
2022-12-11T23:50:19.000Z,24.4
2022-12-11T23:55:15.992Z,24.4
